Time;durP1;ratioP1;P1;durP2;ratioP2;P2;SDS_P1;SDS_P2;PMS_P1;PMS_P2;Temp;Humidity;BMP_temperature;BMP_pressure;BME280_temperature;BME280_humidity;BME280_pressure;Samples;Min_cycle;Max_cycle;Signal;HPM_P1;HPM_P2
2022/11/19 00:01:58;;;;;;;;;7.50;7.50;;;;;;;;5089562;28;9518;-70
2022/11/19 00:04:23;;;;;;;;;14.50;12.50;;;;;;;;5089121;28;9039;-70
2022/11/19 00:06:49;;;;;;;;;11.00;7.00;;;;;;;;5088881;28;8788;-70
2022/11/19 00:09:15;;;;;;;;;8.50;7.00;;;;;;;;5089337;28;8822;-71
2022/11/19 00:14:24;;;;;;;;;9.00;9.00;;;;;;;;5089199;28;8791;-71
2022/11/19 00:16:50;;;;;;;;;11.25;8.00;;;;;;;;5088993;28;11411;-71
2022/11/19 00:19:15;;;;;;;;;9.75;7.00;;;;;;;;5088895;28;8846;-71
2022/11/19 00:21:40;;;;;;;;;5.00;5.00;;;;;;;;5091063;28;8837;-72
2022/11/19 00:24:06;;;;;;;;;6.25;6.25;;;;;;;;5087389;28;8804;-72
2022/11/19 00:26:31;;;;;;;;;9.25;6.75;;;;;;;;5087631;28;8792;-71
2022/11/19 00:28:56;;;;;;;;;7.00;7.00;;;;;;;;5087562;28;8801;-71
2022/11/19 00:31:21;;;;;;;;;9.75;8.00;;;;;;;;5087443;28;8788;-70
2022/11/19 00:33:49;;;;;;;;;9.00;9.00;;;;;;;;5087588;28;8827;-71
2022/11/19 00:36:15;;;;;;;;;7.50;6.00;;;;;;;;5087267;28;8826;-70
2022/11/19 00:38:40;;;;;;;;;6.75;6.00;;;;;;;;5087011;28;11463;-71
2022/11/19 00:41:06;;;;;;;;;6.25;6.00;;;;;;;;5090930;28;9494;-71
2022/11/19 00:43:47;;;;;;;;;8.50;5.00;;;;;;;;5091387;28;8800;-71
2022/11/19 00:46:16;;;;;;;;;9.25;6.50;;;;;;;;5087445;28;8940;-71
2022/11/19 00:48:41;;;;;;;;;8.50;6.25;;;;;;;;5088744;28;11446;-71
2022/11/19 00:51:07;;;;;;;;;9.00;6.50;;;;;;;;5090912;28;11449;-72
2022/11/19 00:53:33;;;;;;;;;6.75;5.00;;;;;;;;5091320;28;8883;-71
2022/11/19 00:56:06;;;;;;;;;3.75;2.00;;;;;;;;5091114;28;8887;-70
2022/11/19 00:58:31;;;;;;;;;6.25;6.00;;;;;;;;5091562;28;8959;-70
2022/11/19 01:00:56;;;;;;;;;5.75;5.75;;;;;;;;5091593;28;12085;-70
2022/11/19 01:03:22;;;;;;;;;6.00;6.00;;;;;;;;5091602;28;8802;-71
2022/11/19 01:05:47;;;;;;;;;9.50;6.50;;;;;;;;5091607;28;8946;-71
2022/11/19 01:08:13;;;;;;;;;11.50;5.50;;;;;;;;5089809;28;8788;-70
2022/11/19 01:10:38;;;;;;;;;6.00;6.00;;;;;;;;5091200;28;8788;-71
2022/11/19 01:15:48;;;;;;;;;7.50;5.75;;;;;;;;5089185;28;8788;-70
2022/11/19 01:18:14;;;;;;;;;7.75;5.00;;;;;;;;5085649;28;11466;-71
2022/11/19 01:20:39;;;;;;;;;6.25;5.00;;;;;;;;5081560;28;11397;-71
2022/11/19 01:23:04;;;;;;;;;7.50;6.00;;;;;;;;5063580;28;8797;-70
2022/11/19 01:25:29;;;;;;;;;5.00;3.50;;;;;;;;5080902;28;8823;-71
2022/11/19 01:27:56;;;;;;;;;9.25;5.25;;;;;;;;5079724;28;8786;-71
2022/11/19 01:30:21;;;;;;;;;7.50;6.50;;;;;;;;5079257;28;8818;-70
2022/11/19 01:32:47;;;;;;;;;9.25;7.50;;;;;;;;5061848;28;11527;-70
2022/11/19 01:35:12;;;;;;;;;5.50;5.50;;;;;;;;5079859;28;9557;-71
2022/11/19 01:37:37;;;;;;;;;8.75;6.00;;;;;;;;5081393;28;8867;-71
2022/11/19 01:40:03;;;;;;;;;6.75;6.75;;;;;;;;5078911;28;8878;-71
2022/11/19 01:45:18;;;;;;;;;6.50;6.50;;;;;;;;5079917;28;8784;-70
2022/11/19 01:47:43;;;;;;;;;9.00;8.50;;;;;;;;5076954;28;11414;-70
2022/11/19 01:50:09;;;;;;;;;8.75;6.75;;;;;;;;5079515;28;11508;-72
2022/11/19 01:52:34;;;;;;;;;8.00;8.00;;;;;;;;5080916;28;8838;-71
2022/11/19 01:55:00;;;;;;;;;8.75;5.25;;;;;;;;5078743;28;9538;-72
2022/11/19 01:57:26;;;;;;;;;8.75;8.00;;;;;;;;5079536;28;8790;-72
2022/11/19 01:59:51;;;;;;;;;9.00;9.00;;;;;;;;5079419;28;11447;-71
2022/11/19 02:02:18;;;;;;;;;9.75;9.75;;;;;;;;5080935;28;8871;-72
2022/11/19 02:04:44;;;;;;;;;8.00;8.00;;;;;;;;5079462;28;8823;-72
2022/11/19 02:07:10;;;;;;;;;11.25;9.00;;;;;;;;5079817;28;11413;-71
2022/11/19 02:09:36;;;;;;;;;9.00;5.75;;;;;;;;5080862;28;8909;-71
2022/11/19 02:12:13;;;;;;;;;12.00;8.75;;;;;;;;5075979;28;11434;-70
2022/11/19 02:14:44;;;;;;;;;7.50;7.50;;;;;;;;5072771;28;11431;-71
2022/11/19 02:17:20;;;;;;;;;12.50;11.25;;;;;;;;5090668;28;11401;-72
2022/11/19 02:19:48;;;;;;;;;8.25;8.00;;;;;;;;5090768;28;11609;-71
2022/11/19 02:22:28;;;;;;;;;9.75;7.25;;;;;;;;5072721;28;11424;-71
2022/11/19 02:24:54;;;;;;;;;10.00;10.00;;;;;;;;5072394;28;11479;-71
2022/11/19 02:27:19;;;;;;;;;9.00;6.00;;;;;;;;5090895;28;11455;-71
2022/11/19 02:29:45;;;;;;;;;9.75;9.75;;;;;;;;5090802;28;12101;-71
2022/11/19 02:32:15;;;;;;;;;7.50;7.50;;;;;;;;5090604;28;8798;-72
2022/11/19 02:34:43;;;;;;;;;9.00;9.00;;;;;;;;5073488;28;8806;-71
2022/11/19 02:37:09;;;;;;;;;11.50;7.50;;;;;;;;5094418;28;11580;-71
2022/11/19 02:39:39;;;;;;;;;11.25;10.75;;;;;;;;5099068;28;11492;-71
2022/11/19 02:42:14;;;;;;;;;11.00;9.75;;;;;;;;5093781;28;8905;-71
2022/11/19 02:44:59;;;;;;;;;17.50;12.25;;;;;;;;5091047;28;11399;-71
2022/11/19 02:47:44;;;;;;;;;10.75;9.50;;;;;;;;5090929;28;11487;-71
2022/11/19 02:50:27;;;;;;;;;9.50;9.50;;;;;;;;5083245;28;11554;-71
2022/11/19 02:52:53;;;;;;;;;13.00;11.75;;;;;;;;5075887;28;11543;-72
2022/11/19 02:55:20;;;;;;;;;10.00;10.00;;;;;;;;5079427;28;11586;-67
2022/11/19 02:57:57;;;;;;;;;12.25;9.25;;;;;;;;5080016;28;8834;-68
2022/11/19 03:05:59;;;;;;;;;13.00;12.00;;;;;;;;5075561;28;11627;-70
2022/11/19 03:08:27;;;;;;;;;12.00;10.00;;;;;;;;5077482;28;11577;-70
2022/11/19 03:11:11;;;;;;;;;13.25;12.25;;;;;;;;5074648;28;11595;-70
2022/11/19 03:16:41;;;;;;;;;12.00;11.50;;;;;;;;5079197;28;11436;-70
2022/11/19 03:19:29;;;;;;;;;13.00;12.00;;;;;;;;5079205;28;11514;-70
2022/11/19 03:22:15;;;;;;;;;12.25;9.50;;;;;;;;5041738;28;11503;-70
2022/11/19 03:24:43;;;;;;;;;14.00;10.00;;;;;;;;5076854;28;11737;-70
2022/11/19 03:27:14;;;;;;;;;13.00;12.00;;;;;;;;5077074;28;11480;-70
2022/11/19 03:29:41;;;;;;;;;16.25;12.00;;;;;;;;5077930;28;11557;-70
2022/11/19 03:32:10;;;;;;;;;12.00;12.00;;;;;;;;5078775;28;11599;-71
2022/11/19 03:34:37;;;;;;;;;9.25;8.00;;;;;;;;5077268;28;11470;-70
2022/11/19 03:37:04;;;;;;;;;13.75;13.00;;;;;;;;5079625;28;11432;-69
2022/11/19 03:39:33;;;;;;;;;13.50;12.75;;;;;;;;5076816;28;11514;-70
2022/11/19 03:41:59;;;;;;;;;15.25;13.00;;;;;;;;5078169;28;11439;-70
2022/11/19 03:44:32;;;;;;;;;11.75;9.50;;;;;;;;5078793;28;11462;-70
2022/11/19 03:47:02;;;;;;;;;15.00;10.00;;;;;;;;5075616;28;8869;-70
2022/11/19 03:49:33;;;;;;;;;12.00;12.00;;;;;;;;5076299;28;11476;-70
2022/11/19 03:52:01;;;;;;;;;11.75;11.00;;;;;;;;5077655;28;12185;-69
2022/11/19 03:54:27;;;;;;;;;8.50;8.50;;;;;;;;5076449;28;11440;-70
2022/11/19 03:56:53;;;;;;;;;8.00;8.00;;;;;;;;5078698;28;11472;-69
2022/11/19 03:59:18;;;;;;;;;11.00;10.00;;;;;;;;5077330;28;8852;-69
2022/11/19 04:01:47;;;;;;;;;13.00;9.25;;;;;;;;5076984;28;8921;-69
2022/11/19 04:06:56;;;;;;;;;13.00;11.00;;;;;;;;5074864;28;12023;-70
2022/11/19 04:09:21;;;;;;;;;10.25;8.75;;;;;;;;5077460;28;12337;-69
2022/11/19 04:11:46;;;;;;;;;12.50;10.50;;;;;;;;5078710;28;8787;-70
2022/11/19 04:14:14;;;;;;;;;8.50;8.00;;;;;;;;5076371;28;8858;-69
2022/11/19 04:16:39;;;;;;;;;12.25;10.50;;;;;;;;5059787;28;8813;-69
2022/11/19 04:19:05;;;;;;;;;12.75;10.00;;;;;;;;5078169;28;11525;-70
2022/11/19 04:21:30;;;;;;;;;11.75;9.25;;;;;;;;5076058;28;9009;-70
2022/11/19 04:23:55;;;;;;;;;8.50;8.00;;;;;;;;5076387;28;8812;-70
2022/11/19 04:26:21;;;;;;;;;1.00;1.00;;;;;;;;5077171;28;8832;-70
2022/11/19 04:28:46;;;;;;;;;9.00;9.00;;;;;;;;5078099;28;8859;-70
2022/11/19 04:31:11;;;;;;;;;10.50;8.00;;;;;;;;5076291;28;8824;-70
2022/11/19 04:33:36;;;;;;;;;10.50;9.75;;;;;;;;5077533;28;8970;-70
2022/11/19 04:36:02;;;;;;;;;9.50;9.00;;;;;;;;5059516;28;8843;-69
2022/11/19 04:38:27;;;;;;;;;10.50;8.00;;;;;;;;5076129;28;8832;-69
2022/11/19 04:40:52;;;;;;;;;9.75;9.25;;;;;;;;5073476;28;8789;-69
2022/11/19 04:43:18;;;;;;;;;15.00;11.75;;;;;;;;5059322;28;8826;-69
2022/11/19 04:45:43;;;;;;;;;11.50;11.50;;;;;;;;5059329;28;9639;-69
2022/11/19 04:48:08;;;;;;;;;9.75;9.75;;;;;;;;5057922;28;8808;-69
2022/11/19 04:50:33;;;;;;;;;13.25;12.50;;;;;;;;5059795;28;8830;-70
2022/11/19 04:52:59;;;;;;;;;14.25;12.00;;;;;;;;5076722;28;8808;-70
2022/11/19 04:55:24;;;;;;;;;14.25;10.00;;;;;;;;5076324;28;8813;-69
2022/11/19 04:57:50;;;;;;;;;11.25;11.25;;;;;;;;5078065;28;8816;-69
2022/11/19 05:00:16;;;;;;;;;14.00;13.75;;;;;;;;5077733;28;8786;-69
2022/11/19 05:02:42;;;;;;;;;17.25;13.25;;;;;;;;5076990;28;11515;-70
2022/11/19 05:05:07;;;;;;;;;12.75;9.25;;;;;;;;5075973;28;8949;-69
2022/11/19 05:07:32;;;;;;;;;11.00;11.00;;;;;;;;5069910;28;9094;-68
2022/11/19 05:09:58;;;;;;;;;13.00;11.50;;;;;;;;5088397;28;8908;-69
2022/11/19 05:12:23;;;;;;;;;12.00;12.00;;;;;;;;5088275;28;8778;-68
2022/11/19 05:14:48;;;;;;;;;9.00;9.00;;;;;;;;5088347;28;8775;-69
2022/11/19 05:17:13;;;;;;;;;12.50;10.75;;;;;;;;5088017;28;8775;-68
2022/11/19 05:19:39;;;;;;;;;11.00;11.00;;;;;;;;5094879;28;8913;-69
2022/11/19 05:22:04;;;;;;;;;16.00;10.25;;;;;;;;5097651;28;8790;-68
2022/11/19 05:24:29;;;;;;;;;14.50;12.50;;;;;;;;5091768;28;8859;-68
2022/11/19 05:26:54;;;;;;;;;15.50;10.00;;;;;;;;5092251;28;8782;-68
2022/11/19 05:29:20;;;;;;;;;13.50;13.50;;;;;;;;5092726;28;8806;-70
2022/11/19 05:31:45;;;;;;;;;10.00;8.00;;;;;;;;5091955;28;8790;-69
2022/11/19 05:34:10;;;;;;;;;9.75;9.75;;;;;;;;5091611;28;8794;-69
2022/11/19 05:36:36;;;;;;;;;16.25;11.00;;;;;;;;5091543;28;9493;-70
2022/11/19 05:39:01;;;;;;;;;16.00;13.00;;;;;;;;5091572;28;8833;-69
2022/11/19 05:41:26;;;;;;;;;13.50;12.00;;;;;;;;5091415;28;8774;-69
2022/11/19 05:43:51;;;;;;;;;12.75;9.00;;;;;;;;5091467;28;8802;-69
2022/11/19 05:46:17;;;;;;;;;8.25;8.25;;;;;;;;5073091;28;8938;-69
2022/11/19 05:48:42;;;;;;;;;12.00;12.00;;;;;;;;5091393;28;8818;-69
2022/11/19 05:51:07;;;;;;;;;10.75;8.50;;;;;;;;5091205;28;8899;-70
2022/11/19 05:53:32;;;;;;;;;7.50;7.50;;;;;;;;5091218;28;8875;-69
2022/11/19 05:55:58;;;;;;;;;5.00;4.00;;;;;;;;5091215;28;8801;-68
2022/11/19 05:58:23;;;;;;;;;12.00;9.50;;;;;;;;5072737;28;8829;-70
2022/11/19 06:00:52;;;;;;;;;10.00;10.00;;;;;;;;5091076;28;8806;-69
2022/11/19 06:03:17;;;;;;;;;13.00;8.00;;;;;;;;5091263;28;8874;-70
2022/11/19 06:05:42;;;;;;;;;13.00;12.00;;;;;;;;5091492;28;11430;-70
2022/11/19 06:08:08;;;;;;;;;10.75;9.00;;;;;;;;5091250;28;8794;-70
2022/11/19 06:10:33;;;;;;;;;8.50;8.00;;;;;;;;5091660;28;8774;-69
2022/11/19 06:12:58;;;;;;;;;9.00;8.25;;;;;;;;5073140;28;8822;-69
2022/11/19 06:15:24;;;;;;;;;14.25;11.00;;;;;;;;5091290;28;8921;-70
2022/11/19 06:17:49;;;;;;;;;12.00;11.00;;;;;;;;5090891;28;8849;-69
2022/11/19 06:20:14;;;;;;;;;9.00;9.00;;;;;;;;5073131;28;8848;-69
2022/11/19 06:22:40;;;;;;;;;7.25;7.00;;;;;;;;5091143;28;8836;-68
2022/11/19 06:25:06;;;;;;;;;9.50;9.50;;;;;;;;5090777;28;8786;-69
2022/11/19 06:27:32;;;;;;;;;10.00;7.00;;;;;;;;5090900;28;8798;-69
2022/11/19 06:29:57;;;;;;;;;7.50;6.00;;;;;;;;5090902;28;11561;-69
2022/11/19 06:32:22;;;;;;;;;10.00;9.50;;;;;;;;5090755;28;8802;-69
2022/11/19 06:34:48;;;;;;;;;14.50;10.50;;;;;;;;5090838;28;8806;-69
2022/11/19 06:37:13;;;;;;;;;8.75;7.00;;;;;;;;5090654;28;8914;-69
2022/11/19 06:39:38;;;;;;;;;11.50;11.00;;;;;;;;5090628;28;8810;-69
2022/11/19 06:44:48;;;;;;;;;19.00;18.75;;;;;;;;5090631;28;9558;-69
2022/11/19 06:47:13;;;;;;;;;23.25;23.25;;;;;;;;5090516;28;11473;-68
2022/11/19 06:49:38;;;;;;;;;22.25;17.25;;;;;;;;5090539;28;8787;-68
2022/11/19 06:52:04;;;;;;;;;17.50;17.50;;;;;;;;5090661;28;9309;-68
2022/11/19 06:54:29;;;;;;;;;17.25;17.25;;;;;;;;5090373;28;8885;-68
2022/11/19 06:56:54;;;;;;;;;17.00;15.25;;;;;;;;5090494;28;8858;-68
2022/11/19 06:59:19;;;;;;;;;18.50;17.50;;;;;;;;5090361;28;8864;-69
2022/11/19 07:01:45;;;;;;;;;24.25;19.25;;;;;;;;5090366;28;8900;-69
2022/11/19 07:04:10;;;;;;;;;36.00;34.25;;;;;;;;5090046;28;8810;-72
2022/11/19 07:06:35;;;;;;;;;28.00;25.50;;;;;;;;5090337;28;8778;-69
2022/11/19 07:09:01;;;;;;;;;21.75;18.00;;;;;;;;5090124;28;8937;-70
2022/11/19 07:11:26;;;;;;;;;36.75;35.00;;;;;;;;5090526;28;8821;-70
2022/11/19 07:13:58;;;;;;;;;29.50;22.75;;;;;;;;5089860;28;8814;-69
2022/11/19 07:16:28;;;;;;;;;25.00;20.00;;;;;;;;5090094;28;8813;-69
2022/11/19 07:18:55;;;;;;;;;24.00;16.50;;;;;;;;5089645;28;12242;-74
2022/11/19 07:21:20;;;;;;;;;18.75;16.50;;;;;;;;5070220;28;11502;-72
2022/11/19 07:23:45;;;;;;;;;19.25;16.25;;;;;;;;5069555;28;11596;-74
2022/11/19 07:26:11;;;;;;;;;21.00;18.25;;;;;;;;5089076;28;8810;-72
2022/11/19 07:28:36;;;;;;;;;21.50;18.00;;;;;;;;5088974;28;8814;-76
2022/11/19 07:31:05;;;;;;;;;18.50;16.50;;;;;;;;5072275;28;8886;-75
2022/11/19 07:33:30;;;;;;;;;21.00;17.00;;;;;;;;5051867;28;9558;-73
2022/11/19 07:35:55;;;;;;;;;16.75;16.00;;;;;;;;5069938;28;11481;-72
2022/11/19 07:38:20;;;;;;;;;18.50;17.50;;;;;;;;5062765;28;8979;-69
2022/11/19 07:40:52;;;;;;;;;18.00;16.00;;;;;;;;5058394;28;8791;-68
2022/11/19 07:43:18;;;;;;;;;12.00;11.25;;;;;;;;5049524;28;8810;-69
2022/11/19 07:45:43;;;;;;;;;12.50;12.00;;;;;;;;5049656;28;11608;-69
2022/11/19 07:48:08;;;;;;;;;16.50;13.25;;;;;;;;5049614;28;8829;-69
2022/11/19 07:50:34;;;;;;;;;18.00;15.50;;;;;;;;5049895;28;8811;-70
2022/11/19 07:52:59;;;;;;;;;15.00;12.00;;;;;;;;5049457;28;8890;-78
2022/11/19 07:55:24;;;;;;;;;12.50;12.50;;;;;;;;5049579;28;8798;-72
2022/11/19 07:57:51;;;;;;;;;17.00;16.00;;;;;;;;5049395;28;8794;-71
2022/11/19 08:00:17;;;;;;;;;20.00;13.75;;;;;;;;5049336;28;8917;-72
2022/11/19 08:02:42;;;;;;;;;14.50;11.00;;;;;;;;5049343;28;11539;-75
2022/11/19 08:05:07;;;;;;;;;18.50;17.00;;;;;;;;5049904;28;8891;-76
2022/11/19 08:07:33;;;;;;;;;16.50;15.00;;;;;;;;5049460;28;8905;-72
2022/11/19 08:10:01;;;;;;;;;6.50;6.50;;;;;;;;5085943;28;8794;-78
2022/11/19 08:12:27;;;;;;;;;13.00;13.00;;;;;;;;5085558;28;8830;-74
2022/11/19 08:14:53;;;;;;;;;14.00;14.00;;;;;;;;5068001;28;11616;-73
2022/11/19 08:20:02;;;;;;;;;23.25;17.00;;;;;;;;5089717;28;8839;-72
2022/11/19 08:22:28;;;;;;;;;21.50;16.00;;;;;;;;5088920;28;11598;-71
2022/11/19 08:24:54;;;;;;;;;14.75;8.50;;;;;;;;5088923;28;8819;-72
2022/11/19 08:27:19;;;;;;;;;15.75;14.50;;;;;;;;5088745;28;11462;-72
2022/11/19 08:29:44;;;;;;;;;14.00;12.00;;;;;;;;5088747;28;8821;-71
2022/11/19 08:32:09;;;;;;;;;16.00;15.00;;;;;;;;5091430;28;8798;-70
2022/11/19 08:34:35;;;;;;;;;13.75;13.75;;;;;;;;5088323;28;8803;-70
2022/11/19 08:37:00;;;;;;;;;16.25;13.00;;;;;;;;5088916;28;8896;-72
2022/11/19 08:39:26;;;;;;;;;18.25;17.50;;;;;;;;5102960;28;8837;-71
2022/11/19 08:44:35;;;;;;;;;16.00;15.00;;;;;;;;5109531;28;8908;-74
2022/11/19 08:47:00;;;;;;;;;19.50;15.75;;;;;;;;5107956;28;11428;-73
2022/11/19 08:49:25;;;;;;;;;15.25;13.00;;;;;;;;5108143;28;8789;-74
2022/11/19 08:51:51;;;;;;;;;14.75;13.50;;;;;;;;5109751;28;9180;-77
2022/11/19 08:54:16;;;;;;;;;16.75;15.25;;;;;;;;5109342;28;8794;-74
2022/11/19 08:56:41;;;;;;;;;22.50;17.00;;;;;;;;5107315;28;9902;-75
2022/11/19 08:59:07;;;;;;;;;12.00;12.00;;;;;;;;5107043;28;8824;-70
2022/11/19 09:01:32;;;;;;;;;20.25;20.00;;;;;;;;5110798;28;8809;-70
2022/11/19 09:03:58;;;;;;;;;15.25;15.25;;;;;;;;5099850;28;8803;-74
2022/11/19 09:06:23;;;;;;;;;25.25;24.00;;;;;;;;5092263;28;8792;-73
2022/11/19 09:08:48;;;;;;;;;19.50;16.00;;;;;;;;5101371;28;8797;-75
2022/11/19 09:11:15;;;;;;;;;22.50;17.00;;;;;;;;5113444;28;8789;-73
2022/11/19 09:13:40;;;;;;;;;16.25;15.25;;;;;;;;5112764;28;8828;-73
2022/11/19 09:16:06;;;;;;;;;24.00;16.75;;;;;;;;5101186;28;11492;-73
2022/11/19 09:18:32;;;;;;;;;15.25;14.00;;;;;;;;5081015;28;8896;-74
2022/11/19 09:20:57;;;;;;;;;21.50;19.00;;;;;;;;5072641;28;8778;-73
2022/11/19 09:23:24;;;;;;;;;16.75;13.00;;;;;;;;5072317;28;8782;-73
2022/11/19 09:26:03;;;;;;;;;18.00;15.50;;;;;;;;5072399;28;8774;-73
2022/11/19 09:28:28;;;;;;;;;16.50;16.50;;;;;;;;5072209;28;12361;-73
2022/11/19 09:30:55;;;;;;;;;13.00;13.00;;;;;;;;5071843;28;11538;-73
2022/11/19 09:33:20;;;;;;;;;16.50;16.00;;;;;;;;5072047;28;8811;-73
2022/11/19 09:35:45;;;;;;;;;26.00;21.75;;;;;;;;5071941;28;11501;-73
2022/11/19 09:38:10;;;;;;;;;23.25;20.50;;;;;;;;5078794;28;8822;-73
2022/11/19 09:40:36;;;;;;;;;32.25;27.00;;;;;;;;5111410;28;8797;-73
2022/11/19 09:43:05;;;;;;;;;16.50;16.50;;;;;;;;5111262;28;8874;-74
2022/11/19 09:45:39;;;;;;;;;19.50;19.50;;;;;;;;5112691;28;9543;-73
2022/11/19 09:48:17;;;;;;;;;1.00;0.00;;;;;;;;5112083;28;11472;-73
2022/11/19 09:50:48;;;;;;;;;21.25;19.75;;;;;;;;5112233;27;11389;-74
2022/11/19 09:53:16;;;;;;;;;23.00;18.50;;;;;;;;5112174;28;11607;-73
2022/11/19 09:55:43;;;;;;;;;15.25;14.50;;;;;;;;5112209;28;11471;-73
2022/11/19 09:58:12;;;;;;;;;17.75;17.75;;;;;;;;5111996;28;12190;-73
2022/11/19 10:00:38;;;;;;;;;17.75;17.75;;;;;;;;5112121;28;11468;-73
2022/11/19 10:03:11;;;;;;;;;18.75;16.75;;;;;;;;5111975;28;11485;-73
2022/11/19 10:05:55;;;;;;;;;20.25;16.50;;;;;;;;5111744;28;8800;-74
2022/11/19 10:08:29;;;;;;;;;18.00;15.00;;;;;;;;5111938;28;11482;-74
2022/11/19 10:10:54;;;;;;;;;15.50;15.50;;;;;;;;5112350;28;12277;-74
2022/11/19 10:13:29;;;;;;;;;16.75;14.50;;;;;;;;5111745;28;11446;-73
2022/11/19 10:15:54;;;;;;;;;8.00;6.00;;;;;;;;5111919;28;8942;-73
2022/11/19 10:18:19;;;;;;;;;21.50;19.75;;;;;;;;5111828;28;11454;-73
2022/11/19 10:20:48;;;;;;;;;18.00;15.25;;;;;;;;5102329;28;8831;-74
2022/11/19 10:23:16;;;;;;;;;15.50;15.50;;;;;;;;5089568;28;8832;-73
2022/11/19 10:25:43;;;;;;;;;73.00;59.67;;;;;;;;5091276;28;11570;-74
2022/11/19 10:28:17;;;;;;;;;29.25;24.00;;;;;;;;5091621;28;8788;-75
2022/11/19 10:30:47;;;;;;;;;20.75;20.00;;;;;;;;5091212;28;11504;-75
2022/11/19 10:33:27;;;;;;;;;22.50;19.00;;;;;;;;5089986;28;11507;-76
2022/11/19 10:36:02;;;;;;;;;23.75;17.00;;;;;;;;5089905;28;11535;-77
2022/11/19 10:38:36;;;;;;;;;27.00;19.50;;;;;;;;5096840;28;11531;-75
2022/11/19 10:41:11;;;;;;;;;17.00;17.00;;;;;;;;5111203;28;11461;-74
2022/11/19 10:43:47;;;;;;;;;24.25;21.00;;;;;;;;5095635;28;11541;-74
2022/11/19 10:46:18;;;;;;;;;17.25;17.25;;;;;;;;5088334;28;11560;-72
2022/11/19 10:48:48;;;;;;;;;18.25;17.75;;;;;;;;5090508;28;11483;-75
2022/11/19 10:51:13;;;;;;;;;15.75;14.75;;;;;;;;5095184;28;11563;-73
2022/11/19 10:53:39;;;;;;;;;25.25;21.50;;;;;;;;5107907;28;11666;-72
2022/11/19 10:56:16;;;;;;;;;32.50;28.50;;;;;;;;5113008;28;8806;-76
2022/11/19 10:58:47;;;;;;;;;24.25;24.25;;;;;;;;5107501;28;11539;-78
2022/11/19 11:01:31;;;;;;;;;16.25;15.25;;;;;;;;5091421;28;11525;-75
2022/11/19 11:04:06;;;;;;;;;16.00;16.00;;;;;;;;5089783;28;12289;-72
2022/11/19 11:06:51;;;;;;;;;22.00;11.50;;;;;;;;5098797;28;11525;-72
2022/11/19 11:09:28;;;;;;;;;17.00;15.00;;;;;;;;5097419;28;11636;-72
2022/11/19 11:14:51;;;;;;;;;18.75;16.50;;;;;;;;5099524;28;11480;-73
2022/11/19 11:17:21;;;;;;;;;19.50;16.75;;;;;;;;5096031;28;11513;-73
2022/11/19 11:20:00;;;;;;;;;18.00;18.00;;;;;;;;5102746;28;11540;-74
2022/11/19 11:22:26;;;;;;;;;28.00;18.00;;;;;;;;5097430;28;11543;-75
2022/11/19 11:24:52;;;;;;;;;17.25;15.00;;;;;;;;5099224;28;11523;-76
2022/11/19 11:27:18;;;;;;;;;17.00;15.75;;;;;;;;5090714;28;11556;-80
2022/11/19 11:29:44;;;;;;;;;18.50;16.50;;;;;;;;5087658;28;8924;-78
2022/11/19 11:32:29;;;;;;;;;14.00;14.00;;;;;;;;5090934;28;11482;-77
2022/11/19 11:34:55;;;;;;;;;9.00;9.00;;;;;;;;5090348;28;8824;-79
2022/11/19 11:37:20;;;;;;;;;10.50;9.00;;;;;;;;5089814;28;11626;-77
2022/11/19 11:39:49;;;;;;;;;11.00;9.00;;;;;;;;5105138;28;8849;-76
2022/11/19 11:42:18;;;;;;;;;8.75;7.50;;;;;;;;5107271;28;9563;-72
2022/11/19 11:44:49;;;;;;;;;9.00;9.00;;;;;;;;5089118;28;11462;-72
2022/11/19 11:47:16;;;;;;;;;8.25;6.00;;;;;;;;5089709;28;12203;-71
2022/11/19 11:50:14;;;;;;;;;12.25;9.50;;;;;;;;5089356;28;11472;-70
2022/11/19 11:52:42;;;;;;;;;8.00;8.00;;;;;;;;5045726;28;11450;-73
2022/11/19 11:55:22;;;;;;;;;3.50;1.50;;;;;;;;5046626;28;11522;-72
2022/11/19 11:57:54;;;;;;;;;6.50;6.00;;;;;;;;5046279;28;11409;-72
2022/11/19 12:00:35;;;;;;;;;11.00;8.00;;;;;;;;5046336;28;11470;-72
2022/11/19 12:03:00;;;;;;;;;15.00;11.25;;;;;;;;5044736;28;11406;-72
2022/11/19 12:05:28;;;;;;;;;9.00;7.00;;;;;;;;5048608;28;11653;-75
2022/11/19 12:08:04;;;;;;;;;10.50;8.25;;;;;;;;5044919;28;8882;-79
2022/11/19 12:10:40;;;;;;;;;6.75;6.75;;;;;;;;5033883;28;12171;-76
2022/11/19 12:13:05;;;;;;;;;11.50;9.00;;;;;;;;5057061;28;11492;-73
2022/11/19 12:16:00;;;;;;;;;8.50;7.75;;;;;;;;5046763;28;11506;-73
2022/11/19 12:18:38;;;;;;;;;8.25;7.00;;;;;;;;5039923;28;8817;-76
2022/11/19 12:21:10;;;;;;;;;5.50;5.50;;;;;;;;5065800;28;11387;-73
2022/11/19 12:23:35;;;;;;;;;7.00;7.00;;;;;;;;5058194;28;11378;-74
2022/11/19 12:26:19;;;;;;;;;14.00;10.50;;;;;;;;5045901;28;11407;-74
2022/11/19 12:28:44;;;;;;;;;8.00;5.25;;;;;;;;5061412;28;8928;-74
2022/11/19 12:31:15;;;;;;;;;6.25;6.25;;;;;;;;5068547;28;11455;-69
2022/11/19 12:33:41;;;;;;;;;5.00;4.00;;;;;;;;5091298;28;8793;-68
2022/11/19 12:36:12;;;;;;;;;7.25;6.00;;;;;;;;5112913;28;11375;-68
2022/11/19 12:38:52;;;;;;;;;6.50;4.75;;;;;;;;5113535;28;8812;-69
2022/11/19 12:41:18;;;;;;;;;4.00;3.75;;;;;;;;5113630;28;11553;-69
2022/11/19 12:44:09;;;;;;;;;4.00;4.00;;;;;;;;5109953;28;11517;-70
2022/11/19 12:46:56;;;;;;;;;5.50;5.00;;;;;;;;5109466;28;8902;-71
2022/11/19 12:49:40;;;;;;;;;2.50;2.50;;;;;;;;5113307;28;11449;-72
2022/11/19 12:52:08;;;;;;;;;8.00;4.25;;;;;;;;5113064;28;11428;-71
2022/11/19 12:54:52;;;;;;;;;6.50;4.50;;;;;;;;5113394;28;11539;-74
2022/11/19 12:57:29;;;;;;;;;9.00;5.00;;;;;;;;5113148;28;11553;-74
2022/11/19 13:00:13;;;;;;;;;4.00;4.00;;;;;;;;5113275;28;11556;-74
2022/11/19 13:02:44;;;;;;;;;2.00;2.00;;;;;;;;5113091;28;11449;-76
2022/11/19 13:05:13;;;;;;;;;7.00;4.25;;;;;;;;5113260;28;11430;-71
2022/11/19 13:07:51;;;;;;;;;9.00;9.00;;;;;;;;5113104;28;12263;-71
2022/11/19 13:10:25;;;;;;;;;5.00;5.00;;;;;;;;5112991;28;11431;-71
2022/11/19 13:12:54;;;;;;;;;7.00;4.50;;;;;;;;5113027;28;11414;-73
2022/11/19 13:15:23;;;;;;;;;7.25;6.75;;;;;;;;5111460;28;11419;-70
2022/11/19 13:17:56;;;;;;;;;9.25;5.50;;;;;;;;5112591;28;11441;-74
2022/11/19 13:20:30;;;;;;;;;6.25;6.25;;;;;;;;5111378;28;11444;-72
2022/11/19 13:23:05;;;;;;;;;14.00;10.00;;;;;;;;5112355;28;11483;-75
2022/11/19 13:25:34;;;;;;;;;12.00;9.00;;;;;;;;5110520;28;11540;-73
2022/11/19 13:28:01;;;;;;;;;17.25;15.75;;;;;;;;5112482;28;11441;-75
2022/11/19 13:30:28;;;;;;;;;34.75;32.25;;;;;;;;5112273;27;11456;-73
2022/11/19 13:33:04;;;;;;;;;7.00;7.00;;;;;;;;5112311;28;12300;-69
2022/11/19 13:35:35;;;;;;;;;8.50;5.75;;;;;;;;5112234;28;11496;-71
2022/11/19 13:38:14;;;;;;;;;5.75;5.00;;;;;;;;5110528;28;11445;-69
2022/11/19 13:40:48;;;;;;;;;5.00;5.00;;;;;;;;5110569;28;11438;-70
2022/11/19 13:46:04;;;;;;;;;7.00;7.00;;;;;;;;5111236;28;11401;-69
2022/11/19 13:48:32;;;;;;;;;8.00;5.25;;;;;;;;5111773;28;11420;-68
2022/11/19 13:50:59;;;;;;;;;4.75;4.75;;;;;;;;5111565;28;11481;-69
2022/11/19 13:53:33;;;;;;;;;8.00;8.00;;;;;;;;5110994;28;11426;-70
2022/11/19 13:55:59;;;;;;;;;8.50;5.50;;;;;;;;5110351;28;11601;-70
2022/11/19 13:58:33;;;;;;;;;8.50;6.25;;;;;;;;5111528;28;12362;-70
2022/11/19 14:00:58;;;;;;;;;9.50;8.00;;;;;;;;5111546;27;8935;-70
2022/11/19 14:03:42;;;;;;;;;8.25;5.75;;;;;;;;5111346;27;11515;-70
2022/11/19 14:06:11;;;;;;;;;6.25;4.75;;;;;;;;5110493;28;8908;-70
2022/11/19 14:08:54;;;;;;;;;10.00;9.00;;;;;;;;5111262;28;11356;-70
2022/11/19 14:11:19;;;;;;;;;5.00;5.00;;;;;;;;5111588;28;11486;-68
2022/11/19 14:14:00;;;;;;;;;6.50;5.00;;;;;;;;5111252;28;11347;-70
2022/11/19 14:27:51;;;;;;;;;5.50;4.00;;;;;;;;5111341;28;11349;-69
2022/11/19 14:30:18;;;;;;;;;4.75;2.00;;;;;;;;5111612;28;11392;-69
2022/11/19 14:32:43;;;;;;;;;4.00;3.00;;;;;;;;5111341;28;8789;-69
2022/11/19 14:35:15;;;;;;;;;6.00;4.25;;;;;;;;5111436;28;11383;-69
2022/11/19 14:37:45;;;;;;;;;5.00;2.00;;;;;;;;5111229;28;8797;-68
2022/11/19 14:40:23;;;;;;;;;4.25;2.50;;;;;;;;5110642;28;11400;-69
2022/11/19 14:46:03;;;;;;;;;9.50;9.50;;;;;;;;5110996;28;11366;-70
2022/11/19 14:48:37;;;;;;;;;5.00;5.00;;;;;;;;5109610;28;11528;-69
2022/11/19 14:51:15;;;;;;;;;4.25;4.25;;;;;;;;5109618;28;11460;-70
2022/11/19 14:53:48;;;;;;;;;3.00;3.00;;;;;;;;5109442;28;11470;-71
2022/11/19 14:56:15;;;;;;;;;7.50;6.00;;;;;;;;5109344;28;11560;-70
2022/11/19 14:58:52;;;;;;;;;2.00;2.00;;;;;;;;5109579;28;11395;-69
2022/11/19 15:01:21;;;;;;;;;12.75;12.75;;;;;;;;5110686;28;12130;-69
2022/11/19 15:03:54;;;;;;;;;4.75;4.75;;;;;;;;5110741;28;11495;-71
2022/11/19 15:06:20;;;;;;;;;5.25;4.00;;;;;;;;5110659;28;11378;-71
2022/11/19 15:08:50;;;;;;;;;3.00;3.00;;;;;;;;5110380;27;11433;-70
2022/11/19 15:11:16;;;;;;;;;8.00;8.00;;;;;;;;5110877;28;11521;-70
2022/11/19 15:13:41;;;;;;;;;2.50;2.50;;;;;;;;5110129;28;11436;-70
2022/11/19 15:16:19;;;;;;;;;4.25;4.25;;;;;;;;5108341;28;8785;-71
2022/11/19 15:18:54;;;;;;;;;1.50;1.50;;;;;;;;5095652;28;8831;-72
2022/11/19 15:21:31;;;;;;;;;5.00;1.00;;;;;;;;5088664;28;11434;-71
2022/11/19 15:24:12;;;;;;;;;1.00;1.00;;;;;;;;5090275;28;11363;-72
2022/11/19 15:26:46;;;;;;;;;1.00;0.00;;;;;;;;5090203;28;11368;-73
2022/11/19 15:29:11;;;;;;;;;0.00;0.00;;;;;;;;5089910;28;11385;-70
2022/11/19 15:31:49;;;;;;;;;0.00;0.00;;;;;;;;5090112;28;11375;-72
2022/11/19 15:34:14;;;;;;;;;4.00;2.00;;;;;;;;5088780;28;8965;-70